Cannelton, WV

7:16 AM EST on November 28, 2014 (GMT -0500)
KWVGLENF2 | Change Station
CLOSE
Current Station
Personal Weather Station
Location: Glen Ferris, WV
Elevation: 676 ft
Nearby Weather Stations
Active Advisory: Special Statement

Elev 676 ft 38.15 °N, 81.22 °W | Updated 13 minutes ago

Overcast
Overcast
29.9 °F
Feels Like 30 °F
N
1.0
Wind Variable Wind from South
Gusts 6.0 mph

Today
High -- | Low -- °F
--% Chance of Precip.
Yesterday
High -- | Low -- °F
Precip. -- in
7:19 AM 5:06 PM
Waxing Crescent, 40% visible
Pressure 30.40 in
Visibility 9.0 miles
Clouds Overcast 4300 ft
Windchill 30 °F
Dew Point 23 °F
Humidity 74%
Rainfall 0.00 in
Snow Depth Not available.
UV 0 out of 12
Pollen .10 out of 12
Air Quality Not available.
Flu Activity Not available.
METAR KCRW 281154Z 31007KT 9SM OVC043 M02/M09 A3037 RMK AO2 SNE49 SLP294 4/001 P0000 60000 70001 T10221089 11011 21022 51010

More Conditions Fewer Conditions

Pressure 30.40 in
Visibility 9.0 miles
Clouds Overcast 4300 ft
Windchill 30 °F
Dew Point 23 °F
Humidity 74%
Rainfall 0.00 in
Snow Depth Not available.
UV 0 out of 12
Pollen .10 out of 12
Air Quality Not available.
Flu Activity Not available.
METAR KCRW 281154Z 31007KT 9SM OVC043 M02/M09 A3037 RMK AO2 SNE49 SLP294 4/001 P0000 60000 70001 T10221089 11011 21022 51010

More Conditions Fewer Conditions

10-Day Weather Forecast

Almanac

Astronomy

Nov. 28, 2014 Rise Set
Actual Time
Civil Twilight
Nautical Twilight
Astronomical Twilight
Moon
Length of Visible Light
Length of Day
Tomorrow will be .
, % of the Moon is Illuminated

Today's Extremes

State Highs State Lows

Community

WunderPhotos

Upload Photos

1,774,198 photos uploaded!

WunderBlogs® & News

Nearby

Air Quality

  Air Quality AQ Index Pollutant
Not available.

Snow Depth

Station Depth Elevation

Earthquake Activity

City Distance Mag. Time & Date
Minimum magnitude displayed is 2.5.

Coastal Water Temperatures

Place Temperature

Nearby Weather Stations